Time;durP1;ratioP1;P1;durP2;ratioP2;P2;SDS_P1;SDS_P2;PMS_P1;PMS_P2;Temp;Humidity;BMP_temperature;BMP_pressure;BME280_temperature;BME280_humidity;BME280_pressure;Samples;Min_cycle;Max_cycle;Signal;HPM_P1;HPM_P2
2023/01/08 00:04:05;;;;;;;7.20;6.60;;;10.10;99.90;;;;;;10404704;28;20218;-80
2023/01/08 00:09:07;;;;;;;8.90;8.03;;;10.10;99.90;;;;;;10380912;28;20286;-79
2023/01/08 00:14:09;;;;;;;7.07;6.47;;;10.10;99.90;;;;;;10381291;28;20229;-80
2023/01/08 00:19:13;;;;;;;7.37;6.77;;;10.10;99.90;;;;;;10377106;28;20219;-80
2023/01/08 00:24:15;;;;;;;7.77;7.03;;;10.10;99.90;;;;;;10398365;28;20224;-80
2023/01/08 00:29:17;;;;;;;6.63;6.03;;;10.10;99.90;;;;;;10367533;28;20187;-80
2023/01/08 00:34:20;;;;;;;7.53;6.93;;;10.10;99.90;;;;;;10401430;28;20206;-80
2023/01/08 00:39:23;;;;;;;7.77;7.17;;;10.10;99.90;;;;;;10399333;28;20652;-80
2023/01/08 00:44:25;;;;;;;7.77;6.97;;;10.10;99.90;;;;;;10380404;28;20234;-81
2023/01/08 00:49:28;;;;;;;7.33;6.60;;;10.20;99.30;;;;;;10384083;28;20195;-80
2023/01/08 00:54:30;;;;;;;7.00;6.40;;;10.10;99.20;;;;;;10410828;28;20218;-80
2023/01/08 00:59:32;;;;;;;8.63;7.90;;;10.20;99.60;;;;;;10388842;28;20198;-81
2023/01/08 01:04:36;;;;;;;9.30;7.90;;;10.10;99.90;;;;;;10409063;28;20218;-82
2023/01/08 01:09:38;;;;;;;8.17;7.57;;;10.10;99.90;;;;;;10365654;28;20233;-80
2023/01/08 01:14:40;;;;;;;8.37;7.63;;;10.10;99.90;;;;;;10416975;28;20237;-81
2023/01/08 01:19:44;;;;;;;8.20;7.50;;;10.10;99.90;;;;;;10416199;28;20258;-81
2023/01/08 01:24:46;;;;;;;11.87;10.30;;;10.20;99.90;;;;;;10379651;28;20641;-80
2023/01/08 01:29:48;;;;;;;8.90;8.10;;;10.20;99.90;;;;;;10409914;28;20278;-80
2023/01/08 01:34:51;;;;;;;8.20;7.37;;;10.20;99.90;;;;;;10381844;28;20207;-81
2023/01/08 01:39:55;;;;;;;7.73;6.93;;;10.10;99.50;;;;;;10407536;28;20202;-81
2023/01/08 01:44:57;;;;;;;8.90;6.67;;;10.10;99.90;;;;;;10365220;23;20246;-82
2023/01/08 01:50:03;;;;;;;6.37;5.87;;;10.10;99.90;;;;;;10363059;28;20718;-85
2023/01/08 01:55:07;;;;;;;6.67;6.23;;;10.10;99.90;;;;;;10300884;28;20266;-84
2023/01/08 02:00:10;;;;;;;6.60;6.10;;;10.10;99.70;;;;;;10322938;28;20191;-84
2023/01/08 02:05:16;;;;;;;7.67;7.07;;;10.20;99.30;;;;;;10331431;28;20290;-84
2023/01/08 02:10:27;;;;;;;7.10;6.60;;;10.20;99.00;;;;;;10346050;28;20195;-85
2023/01/08 02:15:38;;;;;;;7.30;6.70;;;10.20;99.00;;;;;;10314926;28;20629;-84
2023/01/08 02:20:46;;;;;;;6.47;5.97;;;10.30;98.90;;;;;;10314808;28;20242;-84
2023/01/08 02:26:07;;;;;;;5.90;5.40;;;10.30;99.00;;;;;;10362896;28;20234;-85
2023/01/08 02:31:11;;;;;;;6.60;6.10;;;10.30;99.00;;;;;;10363071;28;20179;-84
2023/01/08 02:36:37;;;;;;;6.40;5.90;;;10.30;99.30;;;;;;10375749;28;20219;-84
2023/01/08 02:41:51;;;;;;;7.20;6.53;;;10.30;99.30;;;;;;10285544;28;20268;-85
2023/01/08 02:46:56;;;;;;;6.20;5.80;;;10.40;98.70;;;;;;10320322;28;20317;-85
2023/01/08 02:52:00;;;;;;;6.10;5.57;;;10.30;98.80;;;;;;10360837;28;20194;-84
2023/01/08 02:57:08;;;;;;;6.97;6.23;;;10.30;99.40;;;;;;10312355;28;20236;-84
2023/01/08 03:02:11;;;;;;;6.30;5.90;;;10.30;99.20;;;;;;10368962;28;20183;-84
2023/01/08 03:07:14;;;;;;;6.90;6.30;;;10.30;99.30;;;;;;10313731;28;20217;-84
2023/01/08 03:12:22;;;;;;;6.20;5.73;;;10.30;99.20;;;;;;10368975;28;20605;-84
2023/01/08 03:17:30;;;;;;;6.97;6.27;;;10.30;98.90;;;;;;10345484;28;20218;-85
2023/01/08 03:22:34;;;;;;;5.90;5.50;;;10.30;98.50;;;;;;10357843;28;20210;-84
2023/01/08 03:27:42;;;;;;;7.60;6.40;;;10.30;98.70;;;;;;10344422;28;20199;-84
2023/01/08 03:32:46;;;;;;;6.30;5.80;;;10.30;98.90;;;;;;10345913;28;20310;-84
2023/01/08 03:37:54;;;;;;;5.20;4.90;;;10.20;99.30;;;;;;10311593;28;20222;-84
2023/01/08 03:42:57;;;;;;;6.47;5.97;;;10.20;99.20;;;;;;10329846;28;20265;-84
2023/01/08 03:48:01;;;;;;;5.90;5.50;;;10.30;99.20;;;;;;10318323;28;20266;-84
2023/01/08 03:53:03;;;;;;;5.80;5.30;;;10.20;99.20;;;;;;10336825;28;20217;-84
2023/01/08 03:58:06;;;;;;;5.97;5.57;;;10.20;99.60;;;;;;10347378;28;20685;-84
2023/01/08 04:03:08;;;;;;;7.50;6.80;;;10.20;99.80;;;;;;10374370;28;20297;-84
2023/01/08 04:08:11;;;;;;;6.57;5.97;;;10.20;99.50;;;;;;10365989;28;20191;-84
2023/01/08 04:13:14;;;;;;;6.10;5.50;;;10.10;99.50;;;;;;10347326;28;20301;-84
2023/01/08 04:18:16;;;;;;;6.10;5.60;;;10.00;99.90;;;;;;10330997;28;20215;-84
2023/01/08 04:23:18;;;;;;;6.20;5.60;;;10.00;99.90;;;;;;10317151;28;20238;-84
2023/01/08 04:28:23;;;;;;;6.33;5.93;;;10.00;99.90;;;;;;10358848;28;20797;-84
2023/01/08 04:33:25;;;;;;;5.97;5.57;;;10.10;99.80;;;;;;10346962;28;20355;-85
2023/01/08 04:38:27;;;;;;;5.83;5.33;;;10.10;99.90;;;;;;10343660;28;20329;-84
2023/01/08 04:43:31;;;;;;;9.20;5.97;;;10.20;99.90;;;;;;10344264;28;20291;-84
2023/01/08 04:48:33;;;;;;;6.07;5.60;;;10.30;98.60;;;;;;10332401;28;20187;-85
2023/01/08 04:53:38;;;;;;;7.33;6.10;;;10.40;99.70;;;;;;10335295;28;20231;-84
2023/01/08 04:58:41;;;;;;;6.80;6.30;;;10.50;99.90;;;;;;10334708;28;20219;-84
2023/01/08 05:03:43;;;;;;;5.40;5.07;;;10.60;99.90;;;;;;10367170;28;20219;-84
2023/01/08 05:08:45;;;;;;;4.80;4.40;;;10.70;99.60;;;;;;10343041;28;20287;-84
2023/01/08 05:13:49;;;;;;;4.23;3.93;;;10.80;98.70;;;;;;10342235;28;20214;-84
2023/01/08 05:18:52;;;;;;;3.93;3.70;;;10.90;98.90;;;;;;10337353;28;20310;-85
2023/01/08 05:23:54;;;;;;;3.73;3.53;;;11.00;99.60;;;;;;10331824;28;20675;-84
2023/01/08 05:28:57;;;;;;;3.17;3.03;;;11.00;99.90;;;;;;10317771;28;20266;-84
2023/01/08 05:33:59;;;;;;;3.10;3.00;;;11.00;99.90;;;;;;10320236;28;20215;-84
2023/01/08 05:39:01;;;;;;;3.87;3.63;;;11.00;99.90;;;;;;10332710;28;20270;-85
2023/01/08 05:44:05;;;;;;;3.47;3.17;;;11.10;99.90;;;;;;10341163;28;20222;-84
2023/01/08 05:49:07;;;;;;;3.50;3.30;;;11.10;99.90;;;;;;10325314;28;20199;-84
2023/01/08 05:54:09;;;;;;;3.50;3.30;;;11.10;99.90;;;;;;10318285;28;20661;-85
2023/01/08 05:59:14;;;;;;;3.50;3.13;;;10.90;99.90;;;;;;10328523;28;20303;-84
2023/01/08 06:04:16;;;;;;;3.50;3.40;;;10.80;99.90;;;;;;10309605;28;20306;-85
2023/01/08 06:09:18;;;;;;;4.20;3.97;;;10.70;99.90;;;;;;10332667;28;20179;-84
2023/01/08 06:14:22;;;;;;;3.77;3.57;;;10.50;99.90;;;;;;10349954;28;20206;-84
2023/01/08 06:19:24;;;;;;;3.60;3.40;;;10.40;99.90;;;;;;10300856;28;20250;-85
2023/01/08 06:24:26;;;;;;;4.70;4.50;;;10.30;99.90;;;;;;10344096;28;20247;-86
2023/01/08 06:29:29;;;;;;;4.30;4.10;;;10.30;99.90;;;;;;10318406;28;20202;-85
2023/01/08 06:34:31;;;;;;;4.43;4.23;;;10.20;99.90;;;;;;10339439;28;20675;-86
2023/01/08 06:39:33;;;;;;;4.90;4.70;;;10.10;99.90;;;;;;10338444;28;20250;-85
2023/01/08 06:44:36;;;;;;;4.57;4.30;;;10.10;99.90;;;;;;10359296;28;20230;-83
2023/01/08 06:49:38;;;;;;;3.70;3.50;;;10.10;99.90;;;;;;10359398;28;20560;-84
2023/01/08 06:54:41;;;;;;;4.97;4.50;;;10.10;99.90;;;;;;10339517;28;20376;-84
2023/01/08 06:59:44;;;;;;;4.30;4.20;;;10.10;99.90;;;;;;10306209;28;20226;-84
2023/01/08 07:04:46;;;;;;;4.33;4.13;;;10.10;99.90;;;;;;10339780;28;20219;-84
2023/01/08 07:09:48;;;;;;;4.30;4.10;;;10.00;99.90;;;;;;10335130;28;20721;-85
2023/01/08 07:14:51;;;;;;;4.23;4.03;;;10.10;99.90;;;;;;10338613;28;20514;-84
2023/01/08 07:19:53;;;;;;;3.70;3.60;;;10.00;99.90;;;;;;10316987;28;20673;-84
2023/01/08 07:24:55;;;;;;;4.40;4.20;;;10.00;99.90;;;;;;10350286;28;20619;-85
2023/01/08 07:29:59;;;;;;;4.30;4.10;;;10.00;99.90;;;;;;10318211;28;20255;-85
2023/01/08 07:35:01;;;;;;;4.70;4.40;;;10.00;99.90;;;;;;10348248;28;20710;-86
2023/01/08 07:40:04;;;;;;;4.77;4.57;;;10.00;99.90;;;;;;10329082;28;20652;-84
2023/01/08 07:45:08;;;;;;;4.93;4.70;;;10.00;99.90;;;;;;10333712;23;20223;-81
2023/01/08 07:50:10;;;;;;;4.50;4.40;;;9.90;99.90;;;;;;10351763;28;20196;-80
2023/01/08 07:55:13;;;;;;;4.87;4.63;;;9.90;99.90;;;;;;10314467;28;20307;-81
2023/01/08 08:00:16;;;;;;;6.80;6.37;;;9.90;99.90;;;;;;10301846;28;20314;-81
2023/01/08 08:05:18;;;;;;;5.40;5.20;;;9.80;99.90;;;;;;10324971;28;20728;-81
2023/01/08 08:10:21;;;;;;;5.83;5.53;;;9.70;99.90;;;;;;10342985;28;20287;-81
2023/01/08 08:15:24;;;;;;;8.50;8.00;;;9.70;99.90;;;;;;10291967;28;20243;-81
2023/01/08 08:20:26;;;;;;;8.60;8.27;;;9.60;99.90;;;;;;10344246;28;20227;-81
2023/01/08 08:25:28;;;;;;;8.47;8.00;;;9.70;99.90;;;;;;10326031;28;20715;-80
2023/01/08 08:30:33;;;;;;;9.10;8.60;;;9.70;99.90;;;;;;10294000;28;20251;-81
2023/01/08 08:35:36;;;;;;;8.80;8.40;;;9.50;99.90;;;;;;10296583;28;20227;-81
2023/01/08 08:40:38;;;;;;;9.70;9.10;;;9.50;99.90;;;;;;10308385;28;20223;-82
2023/01/08 08:45:41;;;;;;;8.53;8.13;;;9.50;99.90;;;;;;10339711;28;20223;-81
2023/01/08 08:50:43;;;;;;;8.93;8.60;;;9.50;99.90;;;;;;10305834;28;20234;-81
2023/01/08 08:55:45;;;;;;;8.50;8.10;;;9.50;99.90;;;;;;10305011;28;20224;-81
2023/01/08 09:00:49;;;;;;;7.60;7.27;;;9.50;99.90;;;;;;10302844;28;20211;-81
2023/01/08 09:05:51;;;;;;;10.03;9.43;;;9.50;99.90;;;;;;10305134;28;20274;-82
2023/01/08 09:10:53;;;;;;;7.40;7.00;;;9.50;99.90;;;;;;10293551;28;20192;-82
2023/01/08 09:15:58;;;;;;;8.37;8.03;;;9.50;99.90;;;;;;10303563;28;20228;-82
2023/01/08 09:21:04;;;;;;;6.87;6.57;;;9.50;99.90;;;;;;10320619;28;20791;-81
2023/01/08 09:26:07;;;;;;;5.50;5.30;;;9.50;99.90;;;;;;10320495;28;20223;-82
2023/01/08 09:31:10;;;;;;;7.00;6.70;;;9.60;99.90;;;;;;10302545;28;20264;-82
2023/01/08 09:36:12;;;;;;;6.67;6.27;;;9.60;99.90;;;;;;10303647;28;20216;-80
2023/01/08 09:41:19;;;;;;;6.17;5.87;;;9.70;99.90;;;;;;10335918;28;20230;-81
2023/01/08 09:46:26;;;;;;;5.70;5.50;;;9.80;99.90;;;;;;10321246;28;20219;-81
2023/01/08 09:51:33;;;;;;;4.60;4.40;;;9.90;99.90;;;;;;10295461;28;20227;-81
2023/01/08 09:56:36;;;;;;;6.00;5.50;;;10.00;99.90;;;;;;10301993;28;20232;-82
2023/01/08 10:01:43;;;;;;;5.00;4.80;;;10.10;99.90;;;;;;10319700;28;20210;-82
2023/01/08 10:06:51;;;;;;;4.83;4.63;;;10.20;99.90;;;;;;10301534;28;20215;-82
2023/01/08 10:11:56;;;;;;;4.60;4.40;;;10.40;99.90;;;;;;10318472;28;20215;-82
2023/01/08 10:17:03;;;;;;;5.90;5.60;;;10.40;99.90;;;;;;10301066;28;20248;-81
2023/01/08 10:22:12;;;;;;;5.67;5.37;;;10.50;99.90;;;;;;10303828;28;20222;-81
2023/01/08 10:27:17;;;;;;;4.70;4.47;;;10.60;99.90;;;;;;10339100;28;20434;-82
2023/01/08 10:32:28;;;;;;;4.60;4.40;;;10.70;99.90;;;;;;10293313;28;20211;-81
2023/01/08 10:37:38;;;;;;;4.73;4.37;;;10.80;99.90;;;;;;10315372;28;20224;-81
2023/01/08 10:42:40;;;;;;;4.30;4.10;;;10.90;99.90;;;;;;10297142;28;20227;-81
2023/01/08 10:47:47;;;;;;;4.20;4.10;;;10.90;99.90;;;;;;10299587;28;20203;-81
2023/01/08 10:52:54;;;;;;;4.40;4.20;;;10.90;99.90;;;;;;10292101;28;20283;-82
2023/01/08 10:57:58;;;;;;;4.40;4.20;;;11.00;99.90;;;;;;10314085;28;20241;-80
2023/01/08 11:03:03;;;;;;;3.77;3.67;;;11.00;99.90;;;;;;10297650;28;20251;-81
2023/01/08 11:08:08;;;;;;;4.40;4.20;;;11.10;99.90;;;;;;10288062;28;20204;-82
2023/01/08 11:13:17;;;;;;;4.63;4.33;;;11.10;99.90;;;;;;10314811;28;20219;-82
2023/01/08 11:18:22;;;;;;;4.40;4.20;;;11.30;99.90;;;;;;10317773;28;20215;-81
2023/01/08 11:23:27;;;;;;;3.83;3.67;;;11.40;99.90;;;;;;10304089;28;20219;-81
2023/01/08 11:28:40;;;;;;;4.20;3.90;;;11.50;99.90;;;;;;10303306;28;20199;-81
2023/01/08 11:33:47;;;;;;;3.30;3.20;;;11.60;99.90;;;;;;10314658;28;20531;-82
2023/01/08 11:38:49;;;;;;;12.07;10.93;;;11.60;99.90;;;;;;10322631;28;20220;-81
2023/01/08 11:44:06;;;;;;;3.83;3.63;;;11.70;99.90;;;;;;10347047;28;20227;-79
2023/01/08 11:49:39;;;;;;;3.43;3.33;;;11.70;99.90;;;;;;10331372;28;20192;-80
2023/01/08 11:55:03;;;;;;;2.67;2.57;;;11.70;99.90;;;;;;10343395;28;20207;-80
2023/01/08 12:00:24;;;;;;;3.00;2.90;;;11.80;99.90;;;;;;10335429;28;20228;-79
2023/01/08 12:05:31;;;;;;;3.20;3.10;;;11.80;99.90;;;;;;10310606;28;20688;-80
2023/01/08 12:10:47;;;;;;;3.10;3.00;;;11.90;99.90;;;;;;10284056;28;20203;-80
2023/01/08 12:16:00;;;;;;;3.80;3.60;;;11.80;99.90;;;;;;10304520;28;20219;-82
2023/01/08 12:21:12;;;;;;;3.30;3.10;;;11.90;99.90;;;;;;10302009;28;20226;-81
2023/01/08 12:26:23;;;;;;;3.13;3.03;;;11.80;99.90;;;;;;10288795;28;20219;-82
2023/01/08 12:31:49;;;;;;;2.80;2.70;;;11.80;99.90;;;;;;10312439;28;20572;-82
2023/01/08 12:37:02;;;;;;;2.90;2.70;;;11.80;99.90;;;;;;10303509;28;20220;-81
2023/01/08 12:42:10;;;;;;;3.80;2.53;;;11.80;99.90;;;;;;10303086;28;20270;-82
2023/01/08 12:47:18;;;;;;;2.60;2.50;;;11.90;99.90;;;;;;10284747;28;20326;-82
2023/01/08 12:52:29;;;;;;;3.17;3.07;;;11.90;99.90;;;;;;10287399;28;20200;-82
2023/01/08 12:57:39;;;;;;;4.67;4.37;;;11.80;99.90;;;;;;10289119;28;20224;-82
2023/01/08 13:02:51;;;;;;;23.10;20.80;;;11.90;99.90;;;;;;10320790;28;20200;-81
2023/01/08 13:07:57;;;;;;;4.60;4.30;;;12.00;99.90;;;;;;10317422;28;20220;-82
2023/01/08 13:13:00;;;;;;;2.73;2.63;;;12.00;99.90;;;;;;10315474;28;20228;-82
2023/01/08 13:18:08;;;;;;;2.40;2.30;;;12.10;99.90;;;;;;10285726;28;20719;-80
2023/01/08 13:23:25;;;;;;;4.27;3.97;;;12.10;99.90;;;;;;10303783;28;20218;-81
2023/01/08 13:28:30;;;;;;;3.13;2.93;;;12.10;99.90;;;;;;10304466;28;20191;-79
2023/01/08 13:33:42;;;;;;;3.30;3.10;;;12.00;99.90;;;;;;10302337;28;20617;-79
2023/01/08 13:38:45;;;;;;;3.00;2.90;;;12.10;99.90;;;;;;10323350;28;20223;-82
2023/01/08 13:43:49;;;;;;;2.87;2.77;;;12.00;99.90;;;;;;10319745;28;20310;-80
2023/01/08 13:48:59;;;;;;;3.10;2.90;;;12.00;99.90;;;;;;10324716;28;20274;-79
2023/01/08 13:54:21;;;;;;;2.90;2.80;;;12.00;99.90;;;;;;10314686;28;20247;-79
2023/01/08 13:59:39;;;;;;;2.80;2.70;;;12.10;99.90;;;;;;10283822;28;20231;-79
2023/01/08 14:04:48;;;;;;;2.90;2.70;;;12.20;99.90;;;;;;10311788;28;20238;-80
2023/01/08 14:09:52;;;;;;;3.23;3.07;;;12.30;99.90;;;;;;10311539;28;20239;-81
2023/01/08 14:14:58;;;;;;;2.47;2.37;;;12.30;99.90;;;;;;10307612;28;20219;-80
2023/01/08 14:20:00;;;;;;;2.90;2.70;;;12.30;99.90;;;;;;10299189;28;20223;-80
2023/01/08 14:25:06;;;;;;;3.07;2.87;;;12.40;99.90;;;;;;10295834;28;20220;-81
2023/01/08 14:30:16;;;;;;;7.87;7.07;;;12.40;99.90;;;;;;10300539;28;20199;-81
2023/01/08 14:35:31;;;;;;;2.70;2.60;;;12.40;99.90;;;;;;10310972;28;20228;-82
2023/01/08 14:40:39;;;;;;;6.70;2.87;;;12.40;99.90;;;;;;10301531;28;20227;-79
2023/01/08 14:45:47;;;;;;;2.43;2.30;;;12.30;99.90;;;;;;10298490;28;20277;-81
2023/01/08 14:51:04;;;;;;;2.20;2.10;;;12.40;99.90;;;;;;10284518;28;20207;-81
2023/01/08 14:56:13;;;;;;;2.50;2.40;;;12.40;99.90;;;;;;10320318;28;20342;-82
2023/01/08 15:01:18;;;;;;;2.50;2.40;;;12.40;99.90;;;;;;10320578;28;20234;-80
2023/01/08 15:06:25;;;;;;;3.10;3.00;;;12.40;99.90;;;;;;10316766;28;20239;-82
2023/01/08 15:11:30;;;;;;;4.73;4.40;;;12.40;99.90;;;;;;10307606;28;20207;-81
2023/01/08 15:16:36;;;;;;;2.90;2.80;;;12.30;99.90;;;;;;10315657;28;20220;-78
2023/01/08 15:21:39;;;;;;;2.67;2.47;;;12.40;99.90;;;;;;10304664;28;20267;-81
2023/01/08 15:26:43;;;;;;;2.70;2.60;;;12.30;99.90;;;;;;10320441;28;20230;-81
2023/01/08 15:31:47;;;;;;;2.30;2.20;;;12.30;99.90;;;;;;10321902;28;20203;-81
2023/01/08 15:36:49;;;;;;;2.83;2.63;;;12.20;99.90;;;;;;10301625;28;20223;-81
2023/01/08 15:47:12;;;;;;;3.30;3.00;;;12.00;99.90;;;;;;10296053;28;20708;-82
2023/01/08 15:52:15;;;;;;;2.63;2.53;;;11.90;99.90;;;;;;10317948;28;20223;-82
2023/01/08 15:57:20;;;;;;;3.47;3.27;;;11.80;99.90;;;;;;10297672;28;20219;-82
2023/01/08 16:02:23;;;;;;;2.40;2.30;;;11.70;99.90;;;;;;10327264;28;20220;-81
2023/01/08 16:07:25;;;;;;;4.67;4.43;;;11.70;99.90;;;;;;10316137;28;20222;-81
2023/01/08 16:12:28;;;;;;;4.43;4.13;;;11.60;99.90;;;;;;10324549;28;20204;-81
2023/01/08 16:17:32;;;;;;;3.00;2.80;;;11.60;99.90;;;;;;10284301;28;20672;-81
2023/01/08 16:22:34;;;;;;;2.93;2.73;;;11.50;99.90;;;;;;10313884;28;20256;-82
2023/01/08 16:27:39;;;;;;;3.10;2.90;;;11.50;99.90;;;;;;10307732;28;20232;-81
2023/01/08 16:32:41;;;;;;;3.43;2.93;;;11.50;99.90;;;;;;10329956;28;20660;-81
2023/01/08 16:37:43;;;;;;;4.37;4.07;;;11.50;99.90;;;;;;10317505;28;20223;-81
2023/01/08 16:42:46;;;;;;;3.90;3.70;;;11.40;99.90;;;;;;10327124;28;20195;-81
2023/01/08 16:47:49;;;;;;;3.47;3.30;;;11.40;99.90;;;;;;10305385;28;20195;-81
2023/01/08 16:52:51;;;;;;;5.73;5.20;;;11.40;99.90;;;;;;10327760;28;20607;-81
2023/01/08 16:57:54;;;;;;;4.97;4.60;;;11.40;99.90;;;;;;10306945;28;20196;-80
2023/01/08 17:02:56;;;;;;;4.47;4.17;;;11.40;99.90;;;;;;10313589;28;20603;-80
2023/01/08 17:07:58;;;;;;;10.20;8.67;;;11.40;99.90;;;;;;10317324;28;20250;-82
2023/01/08 17:13:02;;;;;;;4.80;4.50;;;11.40;99.90;;;;;;10339490;28;20262;-81
2023/01/08 17:18:04;;;;;;;4.27;3.97;;;11.40;99.90;;;;;;10317542;28;20566;-82
2023/01/08 17:23:06;;;;;;;4.70;4.30;;;11.50;99.90;;;;;;10338200;28;20214;-83
2023/01/08 17:28:14;;;;;;;5.07;4.77;;;11.50;99.90;;;;;;10343678;28;20203;-82
2023/01/08 17:33:16;;;;;;;5.13;4.83;;;11.50;99.90;;;;;;10333586;28;20703;-82
2023/01/08 17:38:19;;;;;;;4.33;4.03;;;11.50;99.90;;;;;;10288559;28;20208;-82
2023/01/08 17:43:22;;;;;;;4.50;4.20;;;11.40;99.90;;;;;;10287970;28;20224;-81
2023/01/08 17:48:24;;;;;;;4.90;4.60;;;11.40;99.90;;;;;;10294211;28;20231;-82
2023/01/08 17:53:28;;;;;;;4.97;4.57;;;11.40;99.90;;;;;;10299129;28;20259;-82
2023/01/08 17:58:32;;;;;;;4.83;4.43;;;11.50;99.90;;;;;;10288724;28;20204;-81
2023/01/08 18:03:34;;;;;;;4.50;4.20;;;11.50;99.90;;;;;;10311481;28;20283;-82
2023/01/08 18:08:36;;;;;;;5.33;4.93;;;11.50;99.90;;;;;;10327008;28;20204;-82
2023/01/08 18:13:40;;;;;;;5.23;4.83;;;11.50;99.90;;;;;;10325031;28;20687;-82
2023/01/08 18:18:42;;;;;;;4.80;4.50;;;11.50;99.90;;;;;;10300240;28;20266;-82
2023/01/08 18:23:46;;;;;;;5.80;5.40;;;11.50;99.90;;;;;;10324108;28;20231;-82
2023/01/08 18:28:51;;;;;;;7.10;6.50;;;11.40;99.90;;;;;;10306488;28;20191;-82
2023/01/08 18:33:53;;;;;;;12.13;10.77;;;11.40;99.90;;;;;;10314578;28;20695;-82
2023/01/08 18:38:56;;;;;;;15.83;12.90;;;11.40;99.90;;;;;;10296223;28;20239;-82
2023/01/08 18:44:00;;;;;;;13.63;11.23;;;11.40;99.90;;;;;;10336597;28;20230;-82
2023/01/08 18:49:03;;;;;;;7.90;7.10;;;11.40;99.90;;;;;;10324135;28;20200;-82
2023/01/08 18:54:07;;;;;;;13.40;11.93;;;11.40;99.90;;;;;;10329491;28;20247;-82
2023/01/08 18:59:11;;;;;;;10.70;9.60;;;11.50;99.90;;;;;;10320569;28;20215;-82
2023/01/08 19:04:16;;;;;;;9.00;8.10;;;11.40;99.90;;;;;;10314561;28;20232;-82
2023/01/08 19:09:18;;;;;;;9.30;8.43;;;11.40;99.90;;;;;;10313387;28;20208;-82
2023/01/08 19:14:22;;;;;;;15.70;14.10;;;11.50;99.90;;;;;;10307068;28;20266;-82
2023/01/08 19:19:24;;;;;;;7.37;6.67;;;11.50;99.90;;;;;;10314039;28;20212;-82
2023/01/08 19:24:27;;;;;;;5.77;5.23;;;11.50;99.90;;;;;;10329341;28;20220;-81
2023/01/08 19:29:30;;;;;;;7.30;6.70;;;11.50;99.90;;;;;;10296512;28;20192;-82
2023/01/08 19:34:32;;;;;;;6.73;6.00;;;11.50;99.90;;;;;;10276649;28;20596;-82
2023/01/08 19:39:34;;;;;;;6.23;5.87;;;11.50;99.90;;;;;;10304429;28;20279;-82
2023/01/08 19:44:38;;;;;;;6.73;5.87;;;11.50;99.90;;;;;;10281641;28;20266;-82
2023/01/08 19:49:41;;;;;;;39.70;25.20;;;11.50;99.90;;;;;;10307395;28;20213;-83
2023/01/08 19:54:44;;;;;;;9.30;8.50;;;11.50;99.90;;;;;;10342604;28;20227;-82
2023/01/08 19:59:47;;;;;;;7.20;6.60;;;11.50;99.90;;;;;;10308250;28;20306;-82
2023/01/08 20:04:50;;;;;;;6.73;6.23;;;11.40;99.90;;;;;;10294375;28;20223;-81
2023/01/08 20:09:52;;;;;;;7.40;6.70;;;11.40;99.90;;;;;;10334750;28;20196;-83
2023/01/08 20:14:56;;;;;;;7.10;6.50;;;11.30;99.90;;;;;;10294274;28;20291;-81
2023/01/08 20:19:58;;;;;;;7.30;6.70;;;11.20;99.90;;;;;;10341157;28;20617;-82
2023/01/08 20:25:01;;;;;;;8.10;7.60;;;11.10;99.90;;;;;;10272547;28;20258;-83
2023/01/08 20:30:07;;;;;;;9.50;8.60;;;10.90;99.90;;;;;;10306309;28;20176;-83
2023/01/08 20:35:09;;;;;;;11.23;10.23;;;10.70;99.90;;;;;;10310728;28;20220;-83
2023/01/08 20:40:12;;;;;;;11.53;10.77;;;10.50;99.90;;;;;;10288603;28;20208;-83
2023/01/08 20:45:15;;;;;;;11.60;10.90;;;10.40;99.90;;;;;;10309009;28;20239;-83
2023/01/08 20:50:17;;;;;;;11.17;10.57;;;10.30;99.90;;;;;;10311503;28;20659;-83
2023/01/08 20:55:20;;;;;;;12.07;11.37;;;10.20;99.90;;;;;;10332336;28;20208;-83
2023/01/08 21:00:24;;;;;;;11.53;10.73;;;10.10;99.90;;;;;;10305661;28;20219;-82
2023/01/08 21:05:26;;;;;;;12.83;11.83;;;10.00;99.90;;;;;;10290022;28;20251;-81
2023/01/08 21:10:29;;;;;;;11.20;10.60;;;10.00;99.90;;;;;;10308326;28;20192;-84
2023/01/08 21:15:35;;;;;;;10.50;9.90;;;9.90;99.90;;;;;;10294216;28;20239;-84
2023/01/08 21:20:38;;;;;;;10.70;10.10;;;9.90;99.90;;;;;;10309788;28;20219;-83
2023/01/08 21:25:40;;;;;;;10.73;10.13;;;9.80;99.90;;;;;;10307285;28;20246;-83
2023/01/08 21:30:43;;;;;;;10.20;9.50;;;9.80;99.90;;;;;;10290068;28;20192;-82
2023/01/08 21:35:45;;;;;;;10.63;10.13;;;9.90;99.90;;;;;;10291356;28;20211;-83
2023/01/08 21:40:47;;;;;;;10.37;9.87;;;9.80;99.90;;;;;;10275022;28;20248;-82
2023/01/08 21:45:56;;;;;;;9.30;8.90;;;9.80;99.90;;;;;;10289831;28;20267;-83
2023/01/08 21:50:58;;;;;;;10.13;9.60;;;9.90;99.90;;;;;;10299524;28;20696;-81
2023/01/08 21:56:01;;;;;;;10.63;10.07;;;9.90;99.90;;;;;;10321102;28;20302;-82
2023/01/08 22:01:08;;;;;;;9.40;9.00;;;10.00;99.90;;;;;;10289366;28;20216;-83
2023/01/08 22:06:10;;;;;;;9.40;9.00;;;10.00;99.90;;;;;;10320071;28;20226;-83
2023/01/08 22:11:12;;;;;;;10.50;10.00;;;10.00;99.90;;;;;;10287948;28;20192;-82
2023/01/08 22:16:16;;;;;;;9.93;9.43;;;9.90;99.90;;;;;;10303525;28;20230;-84
2023/01/08 22:21:19;;;;;;;11.90;11.23;;;9.90;99.90;;;;;;10336341;28;20230;-84
2023/01/08 22:26:21;;;;;;;13.20;12.40;;;9.80;99.90;;;;;;10340127;28;20234;-83
2023/01/08 22:31:25;;;;;;;12.47;11.57;;;9.70;99.90;;;;;;10281613;28;20268;-81
2023/01/08 22:36:27;;;;;;;14.80;13.70;;;9.60;99.90;;;;;;10275135;28;20322;-84
2023/01/08 22:41:29;;;;;;;14.83;13.83;;;9.60;99.90;;;;;;10302334;28;20218;-83
2023/01/08 22:46:33;;;;;;;16.20;15.20;;;9.60;99.90;;;;;;10314923;28;20219;-83
2023/01/08 22:51:35;;;;;;;16.13;15.13;;;9.50;99.90;;;;;;10274538;28;20204;-83
2023/01/08 22:56:37;;;;;;;15.20;14.20;;;9.60;99.90;;;;;;10269931;28;20437;-85
2023/01/08 23:01:40;;;;;;;16.83;15.60;;;9.60;99.90;;;;;;10357218;28;20212;-83
2023/01/08 23:06:43;;;;;;;15.50;14.27;;;9.50;99.90;;;;;;10348968;28;20270;-83
2023/01/08 23:11:45;;;;;;;18.20;16.97;;;9.40;99.90;;;;;;10295592;28;20214;-82
2023/01/08 23:16:48;;;;;;;17.47;16.17;;;9.40;99.90;;;;;;10311849;28;20267;-83
2023/01/08 23:21:50;;;;;;;15.40;14.40;;;9.50;99.90;;;;;;10312490;28;20240;-84
2023/01/08 23:26:52;;;;;;;18.10;16.90;;;9.60;99.90;;;;;;10290904;28;20596;-83
2023/01/08 23:31:56;;;;;;;15.67;14.67;;;9.60;99.90;;;;;;10322909;28;20204;-82
2023/01/08 23:36:58;;;;;;;16.00;15.10;;;9.50;99.90;;;;;;10321519;28;20294;-83
2023/01/08 23:42:00;;;;;;;14.77;13.87;;;9.40;99.90;;;;;;10328258;28;20282;-82
2023/01/08 23:47:04;;;;;;;14.90;14.00;;;9.40;99.90;;;;;;10354026;28;20224;-83
2023/01/08 23:52:06;;;;;;;14.77;13.77;;;9.40;99.90;;;;;;10285036;28;20208;-84
2023/01/08 23:57:08;;;;;;;15.03;14.03;;;9.40;99.90;;;;;;10286181;28;20252;-84
